Terminal Aerodrome Forecast
Issued by NWS Jackson, MS

Home | Current Version | Previous Version | Text Only | Print | Product List | Glossary On
Versions: 1 2 3 4 5 6 7 8 9 10 11 12
000
FTUS44 KMEG 171142
TAFTUP
TAF
KTUP 171142Z 1712/1812 02005KT 6SM -SHRA BR FEW015 BKN025
     FM171300 07005KT 5SM SHRA BR OVC008
     FM171600 16009KT P6SM BKN010
     FM172000 18005KT P6SM OVC008
     FM180600 12004KT 4SM BR OVC004
     FM181000 00000KT 2SM BR OVC003=

USA.gov is the U.S. government's official web portal to all federal, state and local government web resources and services.